sensor_id;sensor_type;location;lat;lon;timestamp;pressure;altitude;pressure_sealevel;temperature;humidity
58385;BME280;44185;47.844;8.966;2023-05-09T00:01:05;96437.94;;;12.71;100.00
58385;BME280;44185;47.844;8.966;2023-05-09T00:03:31;96436.41;;;12.68;100.00
58385;BME280;44185;47.844;8.966;2023-05-09T00:05:56;96438.59;;;12.63;100.00
58385;BME280;44185;47.844;8.966;2023-05-09T00:08:23;96438.34;;;12.66;100.00
58385;BME280;44185;47.844;8.966;2023-05-09T00:10:48;96436.66;;;12.65;100.00
58385;BME280;44185;47.844;8.966;2023-05-09T00:13:14;96434.28;;;12.62;100.00
58385;BME280;44185;47.844;8.966;2023-05-09T00:15:39;96428.00;;;12.63;100.00
58385;BME280;44185;47.844;8.966;2023-05-09T00:18:05;96424.09;;;12.67;100.00
58385;BME280;44185;47.844;8.966;2023-05-09T00:20:30;96424.91;;;12.78;100.00
58385;BME280;44185;47.844;8.966;2023-05-09T00:22:56;96425.59;;;12.80;100.00
58385;BME280;44185;47.844;8.966;2023-05-09T00:25:23;96415.13;;;12.78;100.00
58385;BME280;44185;47.844;8.966;2023-05-09T00:27:48;96415.41;;;12.85;100.00
58385;BME280;44185;47.844;8.966;2023-05-09T00:30:14;96410.94;;;12.76;100.00
58385;BME280;44185;47.844;8.966;2023-05-09T00:32:39;96420.59;;;12.67;100.00
58385;BME280;44185;47.844;8.966;2023-05-09T00:35:06;96414.59;;;12.65;100.00
58385;BME280;44185;47.844;8.966;2023-05-09T00:37:32;96409.84;;;12.68;100.00
58385;BME280;44185;47.844;8.966;2023-05-09T00:39:57;96411.66;;;12.68;100.00
58385;BME280;44185;47.844;8.966;2023-05-09T00:42:24;96418.22;;;12.74;100.00
58385;BME280;44185;47.844;8.966;2023-05-09T00:44:49;96409.81;;;12.78;100.00
58385;BME280;44185;47.844;8.966;2023-05-09T00:47:15;96412.19;;;12.72;100.00
58385;BME280;44185;47.844;8.966;2023-05-09T00:49:40;96415.84;;;12.71;100.00
58385;BME280;44185;47.844;8.966;2023-05-09T00:52:06;96414.16;;;12.70;100.00
58385;BME280;44185;47.844;8.966;2023-05-09T00:54:32;96406.31;;;12.78;100.00
58385;BME280;44185;47.844;8.966;2023-05-09T00:56:57;96410.38;;;12.82;100.00
58385;BME280;44185;47.844;8.966;2023-05-09T00:59:24;96413.75;;;12.84;100.00
58385;BME280;44185;47.844;8.966;2023-05-09T01:01:50;96407.16;;;12.88;100.00
58385;BME280;44185;47.844;8.966;2023-05-09T01:04:16;96404.50;;;12.88;100.00
58385;BME280;44185;47.844;8.966;2023-05-09T01:06:47;96398.91;;;12.92;100.00
58385;BME280;44185;47.844;8.966;2023-05-09T01:09:20;96393.00;;;12.98;100.00
58385;BME280;44185;47.844;8.966;2023-05-09T01:11:54;96390.34;;;12.98;100.00
58385;BME280;44185;47.844;8.966;2023-05-09T01:14:27;96386.59;;;12.90;100.00
58385;BME280;44185;47.844;8.966;2023-05-09T01:16:58;96379.34;;;12.83;100.00
58385;BME280;44185;47.844;8.966;2023-05-09T01:19:49;96381.59;;;12.77;100.00
58385;BME280;44185;47.844;8.966;2023-05-09T01:22:17;96371.66;;;12.79;100.00
58385;BME280;44185;47.844;8.966;2023-05-09T01:25:05;96375.44;;;12.77;100.00
58385;BME280;44185;47.844;8.966;2023-05-09T01:27:38;96378.69;;;12.71;100.00
58385;BME280;44185;47.844;8.966;2023-05-09T01:30:07;96379.53;;;12.71;100.00
58385;BME280;44185;47.844;8.966;2023-05-09T01:32:34;96378.69;;;12.71;100.00
58385;BME280;44185;47.844;8.966;2023-05-09T01:35:03;96379.38;;;12.73;100.00
58385;BME280;44185;47.844;8.966;2023-05-09T01:37:31;96369.16;;;12.78;100.00
58385;BME280;44185;47.844;8.966;2023-05-09T01:39:59;96367.06;;;12.82;100.00
58385;BME280;44185;47.844;8.966;2023-05-09T01:42:31;96368.31;;;12.77;100.00
58385;BME280;44185;47.844;8.966;2023-05-09T01:44:58;96366.50;;;12.78;100.00
58385;BME280;44185;47.844;8.966;2023-05-09T01:47:26;96372.63;;;12.88;100.00
58385;BME280;44185;47.844;8.966;2023-05-09T01:49:52;96371.22;;;12.94;100.00
58385;BME280;44185;47.844;8.966;2023-05-09T01:52:20;96368.44;;;12.86;100.00
58385;BME280;44185;47.844;8.966;2023-05-09T01:54:47;96366.22;;;12.81;100.00
58385;BME280;44185;47.844;8.966;2023-05-09T01:57:16;96367.88;;;12.82;100.00
58385;BME280;44185;47.844;8.966;2023-05-09T01:59:43;96371.53;;;12.81;100.00
58385;BME280;44185;47.844;8.966;2023-05-09T02:02:10;96364.25;;;12.83;100.00
58385;BME280;44185;47.844;8.966;2023-05-09T02:04:38;96356.00;;;12.86;100.00
58385;BME280;44185;47.844;8.966;2023-05-09T02:07:05;96364.81;;;12.87;100.00
58385;BME280;44185;47.844;8.966;2023-05-09T02:09:32;96363.81;;;12.88;100.00
58385;BME280;44185;47.844;8.966;2023-05-09T02:11:57;96368.84;;;12.91;100.00
58385;BME280;44185;47.844;8.966;2023-05-09T02:14:23;96367.16;;;12.90;100.00
58385;BME280;44185;47.844;8.966;2023-05-09T02:16:48;96360.03;;;12.90;100.00
58385;BME280;44185;47.844;8.966;2023-05-09T02:19:14;96358.09;;;12.83;100.00
58385;BME280;44185;47.844;8.966;2023-05-09T02:21:41;96355.88;;;12.78;100.00
58385;BME280;44185;47.844;8.966;2023-05-09T02:24:06;96353.22;;;12.78;100.00
58385;BME280;44185;47.844;8.966;2023-05-09T02:26:32;96352.53;;;12.76;100.00
58385;BME280;44185;47.844;8.966;2023-05-09T02:28:59;96349.31;;;12.72;100.00
58385;BME280;44185;47.844;8.966;2023-05-09T02:31:27;96342.63;;;12.58;100.00
58385;BME280;44185;47.844;8.966;2023-05-09T02:33:54;96339.56;;;12.53;100.00
58385;BME280;44185;47.844;8.966;2023-05-09T02:36:20;96341.69;;;12.49;100.00
58385;BME280;44185;47.844;8.966;2023-05-09T02:38:47;96334.16;;;12.44;100.00
58385;BME280;44185;47.844;8.966;2023-05-09T02:41:13;96332.47;;;12.43;100.00
58385;BME280;44185;47.844;8.966;2023-05-09T02:43:38;96333.88;;;12.38;100.00
58385;BME280;44185;47.844;8.966;2023-05-09T02:46:04;96328.84;;;12.15;100.00
58385;BME280;44185;47.844;8.966;2023-05-09T02:48:29;96327.16;;;12.14;100.00
58385;BME280;44185;47.844;8.966;2023-05-09T02:50:55;96329.94;;;12.12;100.00
58385;BME280;44185;47.844;8.966;2023-05-09T02:53:20;96333.31;;;12.24;100.00
58385;BME280;44185;47.844;8.966;2023-05-09T02:55:47;96333.59;;;12.31;100.00
58385;BME280;44185;47.844;8.966;2023-05-09T02:58:12;96336.66;;;12.36;100.00
58385;BME280;44185;47.844;8.966;2023-05-09T03:00:38;96333.59;;;12.41;100.00
58385;BME280;44185;47.844;8.966;2023-05-09T03:03:03;96338.03;;;12.50;100.00
58385;BME280;44185;47.844;8.966;2023-05-09T03:05:29;96330.22;;;12.49;100.00
58385;BME280;44185;47.844;8.966;2023-05-09T03:07:54;96336.09;;;12.42;100.00
58385;BME280;44185;47.844;8.966;2023-05-09T03:10:20;96331.91;;;12.40;100.00
58385;BME280;44185;47.844;8.966;2023-05-09T03:12:46;96333.03;;;12.37;100.00
58385;BME280;44185;47.844;8.966;2023-05-09T03:15:12;96334.13;;;12.34;100.00
58385;BME280;44185;47.844;8.966;2023-05-09T03:17:38;96332.06;;;12.38;100.00
58385;BME280;44185;47.844;8.966;2023-05-09T03:20:04;96330.78;;;12.32;100.00
58385;BME280;44185;47.844;8.966;2023-05-09T03:22:30;96338.47;;;12.36;100.00
58385;BME280;44185;47.844;8.966;2023-05-09T03:24:55;96326.88;;;12.47;100.00
58385;BME280;44185;47.844;8.966;2023-05-09T03:27:21;96324.88;;;12.59;100.00
58385;BME280;44185;47.844;8.966;2023-05-09T03:29:48;96322.09;;;12.60;100.00
58385;BME280;44185;47.844;8.966;2023-05-09T03:32:14;96315.81;;;12.61;100.00
58385;BME280;44185;47.844;8.966;2023-05-09T03:34:39;96312.47;;;12.59;100.00
58385;BME280;44185;47.844;8.966;2023-05-09T03:37:04;96310.78;;;12.58;100.00
58385;BME280;44185;47.844;8.966;2023-05-09T03:39:30;96311.09;;;12.55;100.00
58385;BME280;44185;47.844;8.966;2023-05-09T03:41:55;96312.63;;;12.57;100.00
58385;BME280;44185;47.844;8.966;2023-05-09T03:44:21;96300.88;;;12.50;100.00
58385;BME280;44185;47.844;8.966;2023-05-09T03:46:47;96301.59;;;12.42;100.00
58385;BME280;44185;47.844;8.966;2023-05-09T03:49:13;96306.47;;;12.37;100.00
58385;BME280;44185;47.844;8.966;2023-05-09T03:51:38;96297.84;;;12.35;100.00
58385;BME280;44185;47.844;8.966;2023-05-09T03:54:04;96306.19;;;12.40;100.00
58385;BME280;44185;47.844;8.966;2023-05-09T03:56:29;96300.91;;;12.40;100.00
58385;BME280;44185;47.844;8.966;2023-05-09T03:58:55;96296.84;;;12.46;100.00
58385;BME280;44185;47.844;8.966;2023-05-09T04:01:20;96301.03;;;12.49;100.00
58385;BME280;44185;47.844;8.966;2023-05-09T04:03:47;96294.03;;;12.48;100.00
58385;BME280;44185;47.844;8.966;2023-05-09T04:06:12;96298.78;;;12.54;100.00
58385;BME280;44185;47.844;8.966;2023-05-09T04:08:38;96298.75;;;12.64;100.00
58385;BME280;44185;47.844;8.966;2023-05-09T04:11:03;96296.94;;;12.64;100.00
58385;BME280;44185;47.844;8.966;2023-05-09T04:13:29;96304.34;;;12.71;100.00
58385;BME280;44185;47.844;8.966;2023-05-09T04:15:54;96299.59;;;12.64;100.00
58385;BME280;44185;47.844;8.966;2023-05-09T04:18:19;96301.41;;;12.64;100.00
58385;BME280;44185;47.844;8.966;2023-05-09T04:20:46;96308.25;;;12.66;100.00
58385;BME280;44185;47.844;8.966;2023-05-09T04:23:12;96305.75;;;12.65;100.00
58385;BME280;44185;47.844;8.966;2023-05-09T04:25:37;96303.34;;;12.72;100.00
58385;BME280;44185;47.844;8.966;2023-05-09T04:28:03;96305.88;;;12.73;100.00
58385;BME280;44185;47.844;8.966;2023-05-09T04:30:28;96307.41;;;12.76;100.00
58385;BME280;44185;47.844;8.966;2023-05-09T04:32:54;96308.75;;;12.80;100.00
58385;BME280;44185;47.844;8.966;2023-05-09T04:35:19;96301.94;;;12.77;100.00
58385;BME280;44185;47.844;8.966;2023-05-09T04:37:46;96300.28;;;12.76;100.00
58385;BME280;44185;47.844;8.966;2023-05-09T04:40:12;96298.84;;;12.82;100.00
58385;BME280;44185;47.844;8.966;2023-05-09T04:42:37;96297.84;;;12.83;100.00
58385;BME280;44185;47.844;8.966;2023-05-09T04:45:03;96306.78;;;12.82;100.00
58385;BME280;44185;47.844;8.966;2023-05-09T04:47:29;96304.84;;;12.84;100.00
58385;BME280;44185;47.844;8.966;2023-05-09T04:49:54;96314.75;;;12.82;100.00
58385;BME280;44185;47.844;8.966;2023-05-09T04:52:19;96308.34;;;12.75;100.00
58385;BME280;44185;47.844;8.966;2023-05-09T04:54:46;96305.13;;;12.81;100.00
58385;BME280;44185;47.844;8.966;2023-05-09T04:57:12;96313.09;;;12.81;100.00
58385;BME280;44185;47.844;8.966;2023-05-09T04:59:37;96307.19;;;12.87;100.00
58385;BME280;44185;47.844;8.966;2023-05-09T05:02:03;96301.47;;;12.92;100.00
58385;BME280;44185;47.844;8.966;2023-05-09T05:04:28;96296.16;;;12.92;100.00
58385;BME280;44185;47.844;8.966;2023-05-09T05:06:53;96302.00;;;12.96;100.00
58385;BME280;44185;47.844;8.966;2023-05-09T05:09:19;96305.34;;;12.98;100.00
58385;BME280;44185;47.844;8.966;2023-05-09T05:11:46;96312.19;;;13.00;100.00
58385;BME280;44185;47.844;8.966;2023-05-09T05:14:11;96306.47;;;12.95;100.00
58385;BME280;44185;47.844;8.966;2023-05-09T05:16:37;96315.97;;;12.98;100.00
58385;BME280;44185;47.844;8.966;2023-05-09T05:19:02;96316.69;;;13.00;100.00
58385;BME280;44185;47.844;8.966;2023-05-09T05:21:28;96305.44;;;13.06;100.00
58385;BME280;44185;47.844;8.966;2023-05-09T05:23:53;96310.47;;;13.09;100.00
58385;BME280;44185;47.844;8.966;2023-05-09T05:26:18;96310.19;;;13.12;100.00
58385;BME280;44185;47.844;8.966;2023-05-09T05:28:45;96316.47;;;13.11;100.00
58385;BME280;44185;47.844;8.966;2023-05-09T05:31:11;96309.22;;;13.14;100.00
58385;BME280;44185;47.844;8.966;2023-05-09T05:33:36;96310.59;;;13.18;100.00
58385;BME280;44185;47.844;8.966;2023-05-09T05:36:02;96313.63;;;13.23;100.00
58385;BME280;44185;47.844;8.966;2023-05-09T05:38:28;96317.97;;;13.24;100.00
58385;BME280;44185;47.844;8.966;2023-05-09T05:40:53;96314.03;;;13.28;100.00
58385;BME280;44185;47.844;8.966;2023-05-09T05:43:18;96319.34;;;13.28;100.00
58385;BME280;44185;47.844;8.966;2023-05-09T05:45:45;96317.38;;;13.30;100.00
58385;BME280;44185;47.844;8.966;2023-05-09T05:48:11;96313.06;;;13.29;100.00
58385;BME280;44185;47.844;8.966;2023-05-09T05:50:36;96314.41;;;13.33;100.00
58385;BME280;44185;47.844;8.966;2023-05-09T05:53:02;96305.38;;;13.26;100.00
58385;BME280;44185;47.844;8.966;2023-05-09T05:55:27;96303.00;;;13.23;100.00
58385;BME280;44185;47.844;8.966;2023-05-09T05:57:53;96309.09;;;13.33;100.00
58385;BME280;44185;47.844;8.966;2023-05-09T06:00:18;96308.81;;;13.37;100.00
58385;BME280;44185;47.844;8.966;2023-05-09T06:02:45;96303.03;;;13.41;100.00
58385;BME280;44185;47.844;8.966;2023-05-09T06:05:11;96293.19;;;13.52;100.00
58385;BME280;44185;47.844;8.966;2023-05-09T06:07:36;96289.69;;;13.51;100.00
58385;BME280;44185;47.844;8.966;2023-05-09T06:10:02;96280.44;;;13.55;100.00
58385;BME280;44185;47.844;8.966;2023-05-09T06:12:27;96286.09;;;13.71;100.00
58385;BME280;44185;47.844;8.966;2023-05-09T06:14:53;96281.00;;;13.59;100.00
58385;BME280;44185;47.844;8.966;2023-05-09T06:17:18;96277.44;;;13.68;100.00
58385;BME280;44185;47.844;8.966;2023-05-09T06:19:45;96280.94;;;13.87;100.00
58385;BME280;44185;47.844;8.966;2023-05-09T06:22:11;96282.75;;;14.05;100.00
58385;BME280;44185;47.844;8.966;2023-05-09T06:24:36;96272.31;;;14.12;100.00
58385;BME280;44185;47.844;8.966;2023-05-09T06:27:02;96271.34;;;14.13;100.00
58385;BME280;44185;47.844;8.966;2023-05-09T06:29:28;96261.22;;;14.35;100.00
58385;BME280;44185;47.844;8.966;2023-05-09T06:31:53;96268.34;;;14.34;100.00
58385;BME280;44185;47.844;8.966;2023-05-09T06:34:19;96263.59;;;14.20;100.00
58385;BME280;44185;47.844;8.966;2023-05-09T06:36:46;96264.78;;;14.26;100.00
58385;BME280;44185;47.844;8.966;2023-05-09T06:39:11;96259.63;;;14.24;100.00
58385;BME280;44185;47.844;8.966;2023-05-09T06:41:36;96257.34;;;14.29;100.00
58385;BME280;44185;47.844;8.966;2023-05-09T06:44:02;96245.75;;;14.39;100.00
58385;BME280;44185;47.844;8.966;2023-05-09T06:46:27;96236.66;;;14.23;100.00
58385;BME280;44185;47.844;8.966;2023-05-09T06:48:53;96241.72;;;14.08;100.00
58385;BME280;44185;47.844;8.966;2023-05-09T06:51:18;96240.13;;;13.97;100.00
58385;BME280;44185;47.844;8.966;2023-05-09T06:53:45;96240.78;;;14.17;100.00
58385;BME280;44185;47.844;8.966;2023-05-09T06:56:11;96238.69;;;14.29;100.00
58385;BME280;44185;47.844;8.966;2023-05-09T06:58:36;96241.56;;;14.36;100.00
58385;BME280;44185;47.844;8.966;2023-05-09T07:01:02;96247.59;;;14.38;100.00
58385;BME280;44185;47.844;8.966;2023-05-09T07:03:27;96243.66;;;14.51;100.00
58385;BME280;44185;47.844;8.966;2023-05-09T07:05:53;96232.91;;;14.61;100.00
58385;BME280;44185;47.844;8.966;2023-05-09T07:08:18;96234.94;;;14.94;100.00
58385;BME280;44185;47.844;8.966;2023-05-09T07:10:45;96223.91;;;14.88;100.00
58385;BME280;44185;47.844;8.966;2023-05-09T07:13:10;96220.31;;;15.06;100.00
58385;BME280;44185;47.844;8.966;2023-05-09T07:15:36;96219.75;;;15.46;100.00
58385;BME280;44185;47.844;8.966;2023-05-09T07:18:02;96216.81;;;16.08;100.00
58385;BME280;44185;47.844;8.966;2023-05-09T07:20:27;96226.81;;;16.06;100.00
58385;BME280;44185;47.844;8.966;2023-05-09T07:22:53;96216.94;;;15.64;100.00
58385;BME280;44185;47.844;8.966;2023-05-09T07:25:18;96216.78;;;15.57;100.00
58385;BME280;44185;47.844;8.966;2023-05-09T07:27:45;96214.88;;;15.25;100.00
58385;BME280;44185;47.844;8.966;2023-05-09T07:30:11;96213.03;;;15.25;100.00
58385;BME280;44185;47.844;8.966;2023-05-09T07:32:36;96219.75;;;15.46;100.00
58385;BME280;44185;47.844;8.966;2023-05-09T07:35:02;96208.38;;;15.27;100.00
58385;BME280;44185;47.844;8.966;2023-05-09T07:37:28;96207.22;;;15.30;100.00
58385;BME280;44185;47.844;8.966;2023-05-09T07:39:53;96206.22;;;15.22;100.00
58385;BME280;44185;47.844;8.966;2023-05-09T07:42:19;96210.53;;;15.32;100.00
58385;BME280;44185;47.844;8.966;2023-05-09T07:44:45;96205.66;;;15.02;100.00
58385;BME280;44185;47.844;8.966;2023-05-09T07:47:11;96203.50;;;15.14;100.00
58385;BME280;44185;47.844;8.966;2023-05-09T07:49:36;96193.09;;;15.46;100.00
58385;BME280;44185;47.844;8.966;2023-05-09T07:52:02;96195.38;;;15.32;100.00
58385;BME280;44185;47.844;8.966;2023-05-09T07:54:28;96185.03;;;15.21;100.00
58385;BME280;44185;47.844;8.966;2023-05-09T07:56:53;96181.91;;;15.42;100.00
58385;BME280;44185;47.844;8.966;2023-05-09T07:59:18;96184.56;;;15.42;100.00
58385;BME280;44185;47.844;8.966;2023-05-09T08:01:45;96178.38;;;15.17;100.00
58385;BME280;44185;47.844;8.966;2023-05-09T08:04:11;96172.03;;;15.26;100.00
58385;BME280;44185;47.844;8.966;2023-05-09T08:06:36;96168.28;;;15.79;100.00
58385;BME280;44185;47.844;8.966;2023-05-09T08:09:02;96171.09;;;15.94;100.00
58385;BME280;44185;47.844;8.966;2023-05-09T08:11:27;96171.41;;;15.66;100.00
58385;BME280;44185;47.844;8.966;2023-05-09T08:13:53;96164.75;;;15.62;100.00
58385;BME280;44185;47.844;8.966;2023-05-09T08:16:18;96165.91;;;15.51;100.00
58385;BME280;44185;47.844;8.966;2023-05-09T08:18:45;96167.25;;;15.72;100.00
58385;BME280;44185;47.844;8.966;2023-05-09T08:21:11;96160.28;;;15.71;100.00
58385;BME280;44185;47.844;8.966;2023-05-09T08:23:36;96155.22;;;15.93;100.00
58385;BME280;44185;47.844;8.966;2023-05-09T08:26:02;96156.91;;;15.94;100.00
58385;BME280;44185;47.844;8.966;2023-05-09T08:28:27;96152.75;;;15.83;100.00
58385;BME280;44185;47.844;8.966;2023-05-09T08:30:53;96150.75;;;15.85;100.00
58385;BME280;44185;47.844;8.966;2023-05-09T08:33:18;96146.44;;;15.75;100.00
58385;BME280;44185;47.844;8.966;2023-05-09T08:35:49;96142.78;;;15.76;100.00
58385;BME280;44185;47.844;8.966;2023-05-09T08:38:15;96141.75;;;15.77;100.00
58385;BME280;44185;47.844;8.966;2023-05-09T08:40:40;96132.91;;;15.68;100.00
58385;BME280;44185;47.844;8.966;2023-05-09T08:43:06;96130.91;;;15.54;100.00
58385;BME280;44185;47.844;8.966;2023-05-09T08:45:34;96133.75;;;15.86;100.00
58385;BME280;44185;47.844;8.966;2023-05-09T08:48:04;96128.03;;;16.14;100.00
58385;BME280;44185;47.844;8.966;2023-05-09T08:50:30;96128.81;;;16.40;100.00
58385;BME280;44185;47.844;8.966;2023-05-09T08:52:57;96132.16;;;16.42;100.00
58385;BME280;44185;47.844;8.966;2023-05-09T08:55:23;96125.63;;;16.44;100.00
58385;BME280;44185;47.844;8.966;2023-05-09T08:57:51;96118.72;;;16.10;100.00
58385;BME280;44185;47.844;8.966;2023-05-09T09:00:17;96115.41;;;16.08;100.00
58385;BME280;44185;47.844;8.966;2023-05-09T09:02:43;96126.03;;;16.65;100.00
58385;BME280;44185;47.844;8.966;2023-05-09T09:05:09;96110.56;;;17.24;100.00
58385;BME280;44185;47.844;8.966;2023-05-09T09:07:35;96113.22;;;17.48;100.00
58385;BME280;44185;47.844;8.966;2023-05-09T09:10:05;96107.28;;;17.76;100.00
58385;BME280;44185;47.844;8.966;2023-05-09T09:12:33;96099.19;;;17.99;100.00
58385;BME280;44185;47.844;8.966;2023-05-09T09:15:03;96091.63;;;17.88;100.00
58385;BME280;44185;47.844;8.966;2023-05-09T09:17:29;96088.03;;;17.81;100.00
58385;BME280;44185;47.844;8.966;2023-05-09T09:19:58;96089.53;;;17.60;95.84
58385;BME280;44185;47.844;8.966;2023-05-09T09:22:29;96084.31;;;18.36;100.00
58385;BME280;44185;47.844;8.966;2023-05-09T09:24:56;96076.47;;;18.86;100.00
58385;BME280;44185;47.844;8.966;2023-05-09T09:27:23;96082.97;;;18.99;95.11
58385;BME280;44185;47.844;8.966;2023-05-09T09:29:48;96074.72;;;18.63;96.75
58385;BME280;44185;47.844;8.966;2023-05-09T09:32:13;96074.13;;;18.46;91.14
58385;BME280;44185;47.844;8.966;2023-05-09T09:35:38;96063.38;;;18.61;95.21
58385;BME280;44185;47.844;8.966;2023-05-09T09:38:05;96066.00;;;18.54;93.75
58385;BME280;44185;47.844;8.966;2023-05-09T09:40:30;96063.88;;;18.50;92.54
58385;BME280;44185;47.844;8.966;2023-05-09T09:42:56;96060.09;;;18.29;92.00
58385;BME280;44185;47.844;8.966;2023-05-09T09:45:21;96061.41;;;18.33;89.65
58385;BME280;44185;47.844;8.966;2023-05-09T09:47:48;96055.03;;;18.71;94.91
58385;BME280;44185;47.844;8.966;2023-05-09T09:50:15;96052.06;;;19.18;97.77
58385;BME280;44185;47.844;8.966;2023-05-09T09:52:43;96050.13;;;19.56;95.20
58385;BME280;44185;47.844;8.966;2023-05-09T09:55:09;96051.88;;;19.49;84.59
58385;BME280;44185;47.844;8.966;2023-05-09T09:57:35;96034.69;;;18.77;90.44
58385;BME280;44185;47.844;8.966;2023-05-09T10:00:01;96041.88;;;18.92;88.86
58385;BME280;44185;47.844;8.966;2023-05-09T10:02:26;96042.41;;;18.65;88.61
58385;BME280;44185;47.844;8.966;2023-05-09T10:04:52;96030.75;;;18.20;93.22
58385;BME280;44185;47.844;8.966;2023-05-09T10:07:21;96028.56;;;18.16;94.18
58385;BME280;44185;47.844;8.966;2023-05-09T10:09:48;96015.31;;;18.22;99.63
58385;BME280;44185;47.844;8.966;2023-05-09T10:12:14;96023.63;;;18.12;94.29
58385;BME280;44185;47.844;8.966;2023-05-09T10:14:41;96013.00;;;18.04;94.14
58385;BME280;44185;47.844;8.966;2023-05-09T10:17:06;96009.66;;;17.87;93.53
58385;BME280;44185;47.844;8.966;2023-05-09T10:19:34;96010.88;;;18.15;93.81
58385;BME280;44185;47.844;8.966;2023-05-09T10:22:04;96007.34;;;18.44;98.93
58385;BME280;44185;47.844;8.966;2023-05-09T10:24:34;96000.53;;;18.11;94.81
58385;BME280;44185;47.844;8.966;2023-05-09T10:27:07;95994.28;;;18.56;98.19
58385;BME280;44185;47.844;8.966;2023-05-09T10:29:35;95988.59;;;18.66;89.52
58385;BME280;44185;47.844;8.966;2023-05-09T10:32:10;95983.38;;;18.80;96.36
58385;BME280;44185;47.844;8.966;2023-05-09T10:34:41;95977.91;;;18.29;91.45
58385;BME280;44185;47.844;8.966;2023-05-09T10:37:08;95975.84;;;18.47;89.83
58385;BME280;44185;47.844;8.966;2023-05-09T10:39:34;95971.00;;;19.01;91.40
58385;BME280;44185;47.844;8.966;2023-05-09T10:42:01;95966.72;;;19.29;88.36
58385;BME280;44185;47.844;8.966;2023-05-09T10:44:27;95963.06;;;19.37;89.63
58385;BME280;44185;47.844;8.966;2023-05-09T10:46:54;95959.59;;;19.78;89.97
58385;BME280;44185;47.844;8.966;2023-05-09T10:49:20;95963.84;;;19.30;85.70
58385;BME280;44185;47.844;8.966;2023-05-09T10:51:48;95954.06;;;19.00;82.50
58385;BME280;44185;47.844;8.966;2023-05-09T10:54:14;95952.81;;;18.52;84.43
58385;BME280;44185;47.844;8.966;2023-05-09T10:56:49;95935.47;;;18.92;86.26
58385;BME280;44185;47.844;8.966;2023-05-09T10:59:37;95940.13;;;18.83;82.56
58385;BME280;44185;47.844;8.966;2023-05-09T11:02:03;95941.22;;;18.89;79.42
58385;BME280;44185;47.844;8.966;2023-05-09T11:04:30;95933.94;;;19.33;83.28
58385;BME280;44185;47.844;8.966;2023-05-09T11:06:55;95938.53;;;18.67;84.18
58385;BME280;44185;47.844;8.966;2023-05-09T11:09:22;95928.13;;;18.57;86.70
58385;BME280;44185;47.844;8.966;2023-05-09T11:11:51;95927.56;;;18.84;85.81
58385;BME280;44185;47.844;8.966;2023-05-09T11:14:27;95918.59;;;19.20;85.11
58385;BME280;44185;47.844;8.966;2023-05-09T11:16:58;95908.22;;;19.17;83.42
58385;BME280;44185;47.844;8.966;2023-05-09T11:19:35;95914.56;;;19.38;82.72
58385;BME280;44185;47.844;8.966;2023-05-09T11:22:01;95906.56;;;19.45;83.11
58385;BME280;44185;47.844;8.966;2023-05-09T11:24:26;95903.47;;;19.84;87.03
58385;BME280;44185;47.844;8.966;2023-05-09T11:26:52;95892.06;;;19.75;80.44
58385;BME280;44185;47.844;8.966;2023-05-09T11:29:17;95894.31;;;20.14;81.16
58385;BME280;44185;47.844;8.966;2023-05-09T11:32:05;95890.41;;;20.16;79.01
58385;BME280;44185;47.844;8.966;2023-05-09T11:34:32;95881.50;;;20.22;74.78
58385;BME280;44185;47.844;8.966;2023-05-09T11:37:06;95874.69;;;19.71;75.70
58385;BME280;44185;47.844;8.966;2023-05-09T11:39:33;95874.63;;;19.50;77.44
58385;BME280;44185;47.844;8.966;2023-05-09T11:42:00;95864.69;;;19.93;82.72
58385;BME280;44185;47.844;8.966;2023-05-09T11:44:26;95864.66;;;19.86;75.97
58385;BME280;44185;47.844;8.966;2023-05-09T11:46:52;95863.44;;;19.47;78.00
58385;BME280;44185;47.844;8.966;2023-05-09T11:49:19;95859.66;;;19.05;79.66
58385;BME280;44185;47.844;8.966;2023-05-09T11:51:44;95852.41;;;19.28;78.54
58385;BME280;44185;47.844;8.966;2023-05-09T11:54:10;95844.78;;;19.81;83.26
58385;BME280;44185;47.844;8.966;2023-05-09T11:56:37;95848.19;;;20.03;77.89
58385;BME280;44185;47.844;8.966;2023-05-09T11:59:02;95831.91;;;20.25;77.05
58385;BME280;44185;47.844;8.966;2023-05-09T12:01:28;95833.53;;;20.06;77.13
58385;BME280;44185;47.844;8.966;2023-05-09T12:03:54;95832.13;;;19.61;74.60
58385;BME280;44185;47.844;8.966;2023-05-09T12:06:20;95826.03;;;19.38;78.47
58385;BME280;44185;47.844;8.966;2023-05-09T12:08:46;95829.50;;;19.74;75.95
58385;BME280;44185;47.844;8.966;2023-05-09T12:11:13;95822.28;;;19.82;78.37
58385;BME280;44185;47.844;8.966;2023-05-09T12:13:48;95825.53;;;20.19;78.41
58385;BME280;44185;47.844;8.966;2023-05-09T12:16:14;95821.72;;;20.00;75.52
58385;BME280;44185;47.844;8.966;2023-05-09T12:18:43;95812.75;;;19.72;73.86
58385;BME280;44185;47.844;8.966;2023-05-09T12:21:09;95811.78;;;19.94;74.27
58385;BME280;44185;47.844;8.966;2023-05-09T12:23:35;95807.47;;;19.99;74.38
58385;BME280;44185;47.844;8.966;2023-05-09T12:26:01;95799.44;;;20.06;77.64
58385;BME280;44185;47.844;8.966;2023-05-09T12:28:27;95793.16;;;19.78;72.71
58385;BME280;44185;47.844;8.966;2023-05-09T12:30:53;95794.22;;;19.91;79.29
58385;BME280;44185;47.844;8.966;2023-05-09T12:33:19;95789.91;;;19.90;82.54
58385;BME280;44185;47.844;8.966;2023-05-09T12:35:45;95786.78;;;19.30;73.97
58385;BME280;44185;47.844;8.966;2023-05-09T12:38:13;95783.78;;;19.54;75.44
58385;BME280;44185;47.844;8.966;2023-05-09T12:40:40;95777.41;;;19.55;78.23
58385;BME280;44185;47.844;8.966;2023-05-09T12:43:06;95776.69;;;19.95;77.74
58385;BME280;44185;47.844;8.966;2023-05-09T12:45:32;95768.44;;;20.10;74.45
58385;BME280;44185;47.844;8.966;2023-05-09T12:47:57;95770.84;;;19.71;75.28
58385;BME280;44185;47.844;8.966;2023-05-09T12:50:30;95760.50;;;19.61;76.27